Flight Track Log - Related Links

Times and Time Zones

All times are in EDT time to prevent confusion due to time zone crossing. See the N54PE flight status page for this flight to view local times or setup timezone preferences in your user account.

Time Position Orientation Groundspeed Altitude Reporting Facility
EDT Latitude Longitude Course Direction KTS MPH feet Rate Location/Type
Wed 05:20:35 PM 41.6560 -87.3350 22° Northeast 192 221 3,900  Level FlightAware ADS-B
Wed 05:21:03 PM 41.6790 -87.3220 23° Northeast 201 231 4,800 2,036 Climbing FlightAware ADS-B
Wed 05:21:31 PM 41.7040 -87.3070 24° Northeast 203 234 5,800 1,855 Climbing FlightAware ADS-B
Wed 05:21:58 PM 41.7250 -87.2950 23° Northeast 213 245 6,500 1,592 Climbing FlightAware ADS-B
Wed 05:22:20 PM 41.7470 -87.2810 25° Northeast 220 253 7,100 1,535 Climbing FlightAware ADS-B
Wed 05:22:41 PM 41.7670 -87.2680 26° Northeast 223 257 7,600 1,548 Climbing FlightAware ADS-B
Wed 05:22:51 PM 41.7740 -87.2580 47° Northeast 223 257 7,900 1,750 Climbing FlightAware ADS-B
Wed 05:23:05 PM 41.7780 -87.2380 75° East 222 255 8,300 1,500 Climbing FlightAware ADS-B
Wed 05:23:35 PM 41.7780 -87.1990 90° East 224 258 9,000 1,500 Climbing FlightAware ADS-B
Wed 05:23:45 PM 41.7790 -87.1850 85° East 225 259 9,300 1,385 Climbing FlightAware ADS-B
Wed 05:24:14 PM 41.7800 -87.1460 88° East 229 264 9,900 1,263 Climbing FlightAware ADS-B
Wed 05:25:01 PM 41.7800 -87.0770 90° East 241 277 10,900 1,326 Climbing FlightAware ADS-B
Wed 05:25:40 PM 41.7790 -87.0150 91° East 251 289 11,800 1,185 Climbing FlightAware ADS-B
Wed 05:26:22 PM 41.7780 -86.9500 91° East 265 305 12,500 970 Climbing FlightAware ADS-B
Wed 05:27:19 PM 41.7840 -86.8590 85° East 268 308 13,400 1,063 Climbing FlightAware ADS-B
Wed 05:27:58 PM 41.7940 -86.7930 78° East 269 310 14,200 1,000 Climbing FlightAware ADS-B
Wed 05:28:43 PM 41.8050 -86.7230 78° East 273 314 14,800 429 Climbing FlightAware ADS-B
Wed 05:29:22 PM 41.8150 -86.6510 79° East 293 337 14,800  Level FlightAware ADS-B
Wed 05:30:08 PM 41.8270 -86.5680 79° East 305 351 14,800  Level FlightAware ADS-B
Wed 05:30:49 PM 41.8380 -86.4910 79° East 309 356 14,800  Level FlightAware ADS-B
Wed 05:31:29 PM 41.8480 -86.4130 80° East 311 358 14,800  Level FlightAware ADS-B
Wed 05:32:12 PM 41.8590 -86.3350 79° East 311 358 14,800  Level FlightAware ADS-B
Wed 05:32:57 PM 41.8710 -86.2490 79° East 311 358 14,800  Level FlightAware ADS-B
Wed 05:33:51 PM 41.8840 -86.1540 80° East 313 360 14,800  Level FlightAware ADS-B
Wed 05:34:34 PM 41.8960 -86.0630 80° East 313 360 14,800  Level FlightAware ADS-B
Wed 05:35:10 PM 41.9060 -85.9930 79° East 314 361 14,800  Level FlightAware ADS-B
Wed 05:35:57 PM 41.9180 -85.9040 80° East 312 359 14,800  Level FlightAware ADS-B
Wed 05:36:38 PM 41.9280 -85.8250 80° East 313 360 14,800  Level FlightAware ADS-B
Wed 05:37:18 PM 41.9380 -85.7500 80° East 313 360 14,800  Level FlightAware ADS-B
Wed 05:38:03 PM 41.9490 -85.6650 80° East 313 360 14,800  Level FlightAware ADS-B
Wed 05:38:45 PM 41.9600 -85.5840 80° East 314 361 14,800  Level FlightAware ADS-B
Wed 05:39:29 PM 41.9710 -85.4970 80° East 313 360 14,800  Level FlightAware ADS-B
Wed 05:40:01 PM 41.9790 -85.4360 80° East 314 361 14,800  Level FlightAware ADS-B
Wed 05:40:53 PM 41.9890 -85.3360 82° East 314 361 14,800  Level FlightAware ADS-B
Wed 05:41:31 PM 41.9970 -85.2740 80° East 314 361 14,800  Level FlightAware ADS-B
Wed 05:42:07 PM 42.0050 -85.2150 80° East 314 361 14,800 -262 Level FlightAware ADS-B
Wed 05:46:52 PM 41.9800 -84.6250 93° East 317 365 13,400 -307 Descending FlightAware ADS-B
Wed 05:47:39 PM 41.9790 -84.5400 91° East 317 365 13,100 -214 Descending FlightAware ADS-B
Wed 05:48:16 PM 41.9780 -84.4780 91° East 317 365 13,100  Level FlightAware ADS-B
Wed 05:48:56 PM 41.9780 -84.4110 90° East 317 365 13,100 -2,067 Level FlightAware ADS-B
Wed 05:49:46 PM 41.9783 -84.3181 90° East 295 339 10,000 -2,000 Descending Cleveland Center
Wed 05:50:26 PM 41.9747 -84.2339 93° East 279 321 10,100  Climbing Cleveland Center
Wed 05:51:27 PM 41.9697 -84.1275 94° East 284 327 10,000 -234 Descending Cleveland Center
Wed 05:52:34 PM 42.0267 -84.0411 48° Northeast 282 325 9,600 -930 Descending Cleveland Center
Wed 05:58:07 PM 42.2920 -83.6820 48° Northeast 198 228 3,800 -950 Descending FlightAware ADS-B
Wed 05:58:34 PM 42.3060 -83.6520 58° Northeast 200 230 3,900  Climbing FlightAware ADS-B
Wed 05:58:50 PM 42.3150 -83.6350 54° Northeast 199 229 3,800 -279 Descending FlightAware ADS-B
Wed 05:59:17 PM 42.3290 -83.6060 57° Northeast 190 219 3,700 -600 Descending FlightAware ADS-B
Wed 05:59:30 PM 42.3350 -83.5940 56° Northeast 188 216 3,400 -1,463 Descending FlightAware ADS-B
Wed 05:59:58 PM 42.3450 -83.5650 65° Northeast 187 215 2,700 -1,138 Descending FlightAware ADS-B
Wed 06:00:28 PM 42.3360 -83.5360 113° Southeast 167 192 2,300 -643 Descending FlightAware ADS-B
Wed 06:00:54 PM 42.3230 -83.5180 134° Southeast 130 150 2,100 -333 Descending FlightAware ADS-B
Wed 06:01:22 PM 42.3100 -83.5040 141° Southeast 122 140 2,000 -100 Descending FlightAware ADS-B
Wed 06:01:54 PM 42.2950 -83.4940 154° Southeast 120 138 2,000 -300 Level FlightAware ADS-B
Wed 06:02:22 PM 42.2790 -83.4920 175° South 119 137 1,700 -750 Descending FlightAware ADS-B
Wed 06:02:50 PM 42.2640 -83.4970 194° South 123 142 1,300 -750 Descending FlightAware ADS-B
Wed 06:03:02 PM 42.2590 -83.5030 222° Southwest 123 142 1,200 -818 Descending FlightAware ADS-B
Wed 06:03:12 PM 42.2560 -83.5080 231° Southwest 121 139 1,000 -324 Descending FlightAware ADS-B
Wed 06:03:39 PM 42.2470 -83.5210 227° Southwest 121 139 1,000  Level FlightAware ADS-B

Login

Don't have an account? Register now (free) for customized features, flight alerts, and more!